Time;durP1;ratioP1;P1;durP2;ratioP2;P2;SDS_P1;SDS_P2;PMS_P1;PMS_P2;Temp;Humidity;BMP_temperature;BMP_pressure;BME280_temperature;BME280_humidity;BME280_pressure;Samples;Min_cycle;Max_cycle;Signal;HPM_P1;HPM_P2
2023/03/02 00:01:30;;;;;;;37.78;20.55;;;1.90;99.90;;;;;;5091731;28;20044;-64
2023/03/02 00:03:59;;;;;;;36.50;21.45;;;1.90;99.90;;;;;;5109385;28;20039;-65
2023/03/02 00:06:29;;;;;;;38.30;20.67;;;1.90;99.90;;;;;;5089211;28;20039;-66
2023/03/02 00:09:01;;;;;;;35.45;19.75;;;1.90;99.90;;;;;;5090547;28;20071;-64
2023/03/02 00:11:29;;;;;;;;;;;1.90;99.90;;;;;;5088668;28;20066;-64
2023/03/02 00:13:57;;;;;;;40.85;21.30;;;1.90;99.90;;;;;;5076896;28;19989;-65
2023/03/02 00:16:24;;;;;;;35.17;19.73;;;2.00;99.90;;;;;;5056749;28;20531;-65
2023/03/02 00:18:51;;;;;;;36.08;19.88;;;1.90;99.90;;;;;;5091021;28;20586;-65
2023/03/02 00:21:19;;;;;;;36.13;19.08;;;1.90;99.90;;;;;;5088499;28;20162;-67
2023/03/02 00:23:46;;;;;;;39.10;21.05;;;1.90;99.90;;;;;;5090768;28;20040;-67
2023/03/02 00:26:13;;;;;;;35.53;19.58;;;1.90;99.90;;;;;;5087949;28;20098;-67
2023/03/02 00:28:40;;;;;;;32.72;19.15;;;1.80;99.90;;;;;;5105043;28;20043;-67
2023/03/02 00:31:08;;;;;;;32.75;19.40;;;1.90;99.90;;;;;;5095346;28;20522;-67
2023/03/02 00:33:35;;;;;;;37.67;18.83;;;1.80;99.90;;;;;;5071277;28;20040;-67
2023/03/02 00:36:03;;;;;;;36.70;19.58;;;1.80;99.90;;;;;;5089383;28;20086;-67
2023/03/02 00:38:30;;;;;;;31.30;18.98;;;1.70;99.90;;;;;;5088473;28;20040;-67
2023/03/02 00:40:58;;;;;;;35.65;18.52;;;1.70;99.90;;;;;;5085458;28;20040;-67
2023/03/02 00:43:26;;;;;;;37.08;18.27;;;1.70;99.90;;;;;;5091093;28;20036;-68
2023/03/02 00:45:54;;;;;;;34.33;19.13;;;1.70;99.90;;;;;;5090504;28;20040;-67
2023/03/02 00:48:22;;;;;;;33.85;18.83;;;1.70;99.90;;;;;;5092976;28;20572;-67
2023/03/02 00:50:49;;;;;;;29.92;18.35;;;1.60;99.90;;;;;;5093788;28;20088;-67
2023/03/02 00:53:16;;;;;;;32.53;18.75;;;1.60;99.90;;;;;;5090485;28;20071;-67
2023/03/02 00:55:53;;;;;;;31.35;18.65;;;1.60;99.90;;;;;;5089247;28;20502;-67
2023/03/02 00:58:22;;;;;;;32.90;18.45;;;1.60;99.90;;;;;;5090194;28;20496;-66
2023/03/02 01:00:49;;;;;;;30.40;18.08;;;1.50;99.90;;;;;;5088832;28;20105;-66
2023/03/02 01:03:17;;;;;;;38.50;19.85;;;1.50;99.90;;;;;;5090338;28;20032;-66
2023/03/02 01:05:46;;;;;;;32.33;19.50;;;1.50;99.90;;;;;;5103935;28;20032;-66
2023/03/02 01:08:14;;;;;;;39.92;19.77;;;1.50;99.90;;;;;;5098461;28;20040;-67
2023/03/02 01:10:41;;;;;;;33.65;19.85;;;1.40;99.90;;;;;;5092007;28;20044;-66
2023/03/02 01:13:08;;;;;;;36.33;19.73;;;1.40;99.90;;;;;;5088937;28;20093;-66
2023/03/02 01:15:36;;;;;;;32.15;18.33;;;1.40;99.90;;;;;;5088846;28;20398;-67
2023/03/02 01:18:04;;;;;;;32.15;18.05;;;1.50;99.90;;;;;;5088946;28;20078;-67
2023/03/02 01:20:31;;;;;;;30.33;17.27;;;1.40;99.90;;;;;;5095700;28;20414;-67
2023/03/02 01:22:59;;;;;;;35.90;18.38;;;1.40;99.90;;;;;;5089970;28;20467;-67
2023/03/02 01:25:26;;;;;;;31.67;18.00;;;1.40;99.90;;;;;;5088665;28;20356;-67
2023/03/02 01:27:54;;;;;;;32.80;18.80;;;1.30;99.90;;;;;;5088964;28;20379;-66
2023/03/02 01:30:21;;;;;;;33.40;18.80;;;1.30;99.90;;;;;;5089598;28;20040;-66
2023/03/02 01:32:48;;;;;;;32.25;18.15;;;1.30;99.90;;;;;;5088828;28;20040;-66
2023/03/02 01:35:15;;;;;;;36.22;19.23;;;1.30;99.90;;;;;;5093473;28;20040;-66
2023/03/02 01:37:43;;;;;;;32.78;19.27;;;1.30;99.90;;;;;;5098412;28;20047;-67
2023/03/02 01:40:13;;;;;;;37.88;19.13;;;1.30;99.90;;;;;;5087757;28;20040;-67
2023/03/02 01:42:49;;;;;;;38.13;19.30;;;1.30;99.90;;;;;;5090311;28;20035;-67
2023/03/02 01:45:52;;;;;;;31.55;18.40;;;1.40;99.90;;;;;;5088857;28;20122;-67
2023/03/02 01:49:03;;;;;;;34.97;19.00;;;1.50;99.90;;;;;;5082563;28;20075;-67
2023/03/02 01:51:51;;;;;;;40.83;19.38;;;1.40;99.90;;;;;;5088640;28;20615;-66
2023/03/02 01:54:24;;;;;;;35.92;18.92;;;1.40;99.90;;;;;;5088472;28;20051;-67
2023/03/02 01:57:02;;;;;;;33.38;19.02;;;1.40;99.90;;;;;;5088224;28;20071;-67
2023/03/02 01:59:31;;;;;;;30.35;18.10;;;1.50;99.90;;;;;;5088433;28;20085;-66
2023/03/02 02:02:01;;;;;;;35.65;18.92;;;1.50;99.90;;;;;;5073515;28;20517;-67
2023/03/02 02:04:30;;;;;;;39.28;18.52;;;1.50;99.90;;;;;;5100031;28;20130;-67
2023/03/02 02:07:02;;;;;;;30.17;17.30;;;1.50;99.90;;;;;;5095586;28;20036;-67
2023/03/02 02:09:35;;;;;;;36.40;19.83;;;1.50;99.90;;;;;;5087063;28;20109;-67
2023/03/02 02:12:04;;;;;;;32.17;19.50;;;1.50;99.90;;;;;;5084099;28;20397;-66
2023/03/02 02:14:33;;;;;;;40.22;20.83;;;1.50;99.90;;;;;;5089591;28;20489;-67
2023/03/02 02:17:00;;;;;;;32.92;19.05;;;1.50;99.90;;;;;;5076248;28;20081;-67
2023/03/02 02:19:54;;;;;;;34.00;18.63;;;1.50;99.90;;;;;;5108161;28;20138;-67
2023/03/02 02:22:31;;;;;;;30.50;17.75;;;1.50;99.90;;;;;;5088111;28;20044;-67
2023/03/02 02:25:02;;;;;;;30.83;17.50;;;1.50;99.90;;;;;;5091339;28;20048;-67
2023/03/02 02:27:32;;;;;;;34.97;19.35;;;1.60;99.90;;;;;;5101168;28;20263;-68
2023/03/02 02:30:03;;;;;;;31.70;18.30;;;1.60;99.90;;;;;;5087670;28;20075;-67
2023/03/02 02:32:35;;;;;;;38.03;18.75;;;1.70;99.90;;;;;;5070497;28;20577;-67
2023/03/02 02:35:18;;;;;;;35.78;18.85;;;1.70;99.90;;;;;;5090014;28;20505;-67
2023/03/02 02:37:57;;;;;;;34.50;17.98;;;1.70;99.90;;;;;;5089579;28;20036;-66
2023/03/02 02:40:52;;;;;;;39.28;19.05;;;1.70;99.90;;;;;;5086673;28;20071;-66
2023/03/02 02:43:25;;;;;;;33.35;18.17;;;1.60;99.90;;;;;;5087814;28;20120;-66
2023/03/02 02:45:55;;;;;;;36.22;18.33;;;1.60;99.90;;;;;;5087405;28;20056;-66
2023/03/02 02:48:29;;;;;;;34.55;18.70;;;1.60;99.90;;;;;;5090000;28;20044;-67
2023/03/02 02:51:01;;;;;;;38.17;20.08;;;1.60;99.90;;;;;;5090711;28;20052;-68
2023/03/02 02:53:48;;;;;;;34.95;18.48;;;1.60;99.90;;;;;;5108997;28;20150;-66
2023/03/02 02:56:17;;;;;;;33.88;19.13;;;1.70;99.90;;;;;;5105090;28;20102;-66
2023/03/02 02:58:50;;;;;;;33.85;18.40;;;1.70;99.90;;;;;;5099722;28;20032;-67
2023/03/02 03:01:24;;;;;;;36.72;19.00;;;1.70;99.90;;;;;;5102983;28;20127;-66
2023/03/02 03:04:01;;;;;;;30.08;18.30;;;1.60;99.90;;;;;;5090736;28;20391;-66
2023/03/02 03:06:37;;;;;;;33.72;19.38;;;1.60;99.90;;;;;;5091038;28;20450;-66
2023/03/02 03:09:06;;;;;;;36.17;18.80;;;1.60;99.90;;;;;;5090784;28;20555;-66
2023/03/02 03:11:41;;;;;;;36.92;20.02;;;1.60;99.90;;;;;;5102699;28;20054;-67
2023/03/02 03:14:26;;;;;;;33.28;18.83;;;1.60;99.90;;;;;;5090578;28;20434;-66
2023/03/02 03:16:54;;;;;;;36.20;19.30;;;1.70;99.90;;;;;;5095989;28;20046;-66
2023/03/02 03:19:24;;;;;;;33.92;19.08;;;1.60;99.90;;;;;;5112074;28;20529;-67
2023/03/02 03:21:58;;;;;;;35.63;20.27;;;1.70;99.90;;;;;;5100903;28;20040;-66
2023/03/02 03:24:30;;;;;;;36.92;19.63;;;1.60;99.90;;;;;;5091273;28;20044;-66
2023/03/02 03:26:59;;;;;;;36.05;19.35;;;1.60;99.90;;;;;;5089739;28;20040;-66
2023/03/02 03:29:28;;;;;;;36.75;19.13;;;1.60;99.90;;;;;;5091033;28;20825;-66
2023/03/02 03:31:59;;;;;;;;;;;1.60;99.90;;;;;;5108584;28;20043;-66
2023/03/02 03:34:28;;;;;;;34.88;19.75;;;1.60;99.90;;;;;;5101461;28;19920;-66
2023/03/02 03:37:00;;;;;;;36.25;19.25;;;1.60;99.90;;;;;;5104098;28;20043;-67
2023/03/02 03:39:32;;;;;;;41.58;20.75;;;1.60;99.90;;;;;;5109528;28;20442;-66
2023/03/02 03:41:59;;;;;;;37.50;19.20;;;1.60;99.90;;;;;;5109213;28;20039;-66
2023/03/02 03:44:27;;;;;;;36.97;21.08;;;1.50;99.90;;;;;;5092704;28;20622;-67
2023/03/02 03:46:55;;;;;;;37.00;19.48;;;1.60;99.90;;;;;;5088312;28;20123;-66
2023/03/02 03:49:23;;;;;;;35.47;19.35;;;1.60;99.90;;;;;;5091401;28;20137;-66
2023/03/02 03:51:50;;;;;;;37.40;20.40;;;1.50;99.90;;;;;;5076039;28;20360;-66
2023/03/02 03:54:18;;;;;;;33.40;19.95;;;1.50;99.90;;;;;;5089995;28;20055;-66
2023/03/02 03:56:48;;;;;;;32.88;18.27;;;1.50;99.90;;;;;;5088683;28;20581;-66
2023/03/02 03:59:19;;;;;;;35.50;20.20;;;1.50;99.90;;;;;;5091370;28;20040;-66
2023/03/02 04:01:57;;;;;;;35.20;19.83;;;1.50;99.90;;;;;;5070414;28;20579;-67
2023/03/02 04:04:31;;;;;;;36.25;20.13;;;1.50;99.90;;;;;;5090161;28;20044;-67
2023/03/02 04:06:59;;;;;;;36.42;19.77;;;1.50;99.90;;;;;;5093018;28;20043;-67
2023/03/02 04:09:31;;;;;;;39.67;20.75;;;1.40;99.90;;;;;;5103967;28;20036;-67
2023/03/02 04:11:58;;;;;;;36.40;20.43;;;1.50;99.90;;;;;;5089352;28;20123;-67
2023/03/02 04:14:26;;;;;;;34.42;19.70;;;1.50;99.90;;;;;;5075527;28;20424;-67
2023/03/02 04:16:55;;;;;;;34.20;19.75;;;1.50;99.90;;;;;;5093182;28;20035;-66
2023/03/02 04:19:23;;;;;;;33.92;20.25;;;1.50;99.90;;;;;;5105693;28;20044;-67
2023/03/02 04:21:54;;;;;;;42.03;20.55;;;1.50;99.90;;;;;;5088740;28;20036;-67
2023/03/02 04:24:23;;;;;;;34.05;19.58;;;1.60;99.90;;;;;;5076192;28;20063;-67
2023/03/02 04:26:53;;;;;;;35.10;18.87;;;1.50;99.90;;;;;;5073276;28;20151;-67
2023/03/02 04:29:22;;;;;;;40.38;21.33;;;1.50;99.90;;;;;;5093421;28;20344;-67
2023/03/02 04:31:50;;;;;;;40.85;20.60;;;1.50;99.90;;;;;;5088338;28;20060;-67
2023/03/02 04:34:18;;;;;;;37.78;20.50;;;1.50;99.90;;;;;;5088047;28;20052;-66
2023/03/02 04:36:47;;;;;;;36.20;19.75;;;1.50;99.90;;;;;;5088358;28;20039;-67
2023/03/02 04:39:15;;;;;;;40.33;20.80;;;1.50;99.90;;;;;;5090355;28;20037;-67
2023/03/02 04:41:46;;;;;;;36.38;20.60;;;1.40;99.90;;;;;;5099168;28;20058;-66
2023/03/02 04:44:15;;;;;;;40.38;19.25;;;1.50;99.90;;;;;;5091641;28;20032;-66
2023/03/02 04:46:42;;;;;;;36.17;19.38;;;1.50;99.90;;;;;;5090220;28;20048;-67
2023/03/02 04:49:12;;;;;;;40.13;20.90;;;1.50;99.90;;;;;;5098082;28;20585;-67
2023/03/02 04:51:42;;;;;;;39.28;19.83;;;1.50;99.90;;;;;;5096649;28;20120;-67
2023/03/02 04:54:21;;;;;;;39.83;21.13;;;1.40;99.90;;;;;;5089487;28;20115;-67
2023/03/02 04:56:50;;;;;;;40.17;20.80;;;1.40;99.90;;;;;;5089113;28;20047;-67
2023/03/02 04:59:21;;;;;;;42.08;21.20;;;1.40;99.90;;;;;;5088705;28;20032;-67
2023/03/02 05:01:49;;;;;;;42.83;21.95;;;1.40;99.90;;;;;;5089111;28;20410;-67
2023/03/02 05:04:17;;;;;;;40.45;20.08;;;1.40;99.90;;;;;;5092122;28;20036;-67
2023/03/02 05:06:44;;;;;;;37.38;21.20;;;1.40;99.90;;;;;;5100871;28;20050;-67
2023/03/02 05:09:12;;;;;;;38.38;20.88;;;1.40;99.90;;;;;;5096868;28;20410;-67
2023/03/02 05:11:39;;;;;;;36.25;20.75;;;1.40;99.90;;;;;;5088005;28;20044;-67
2023/03/02 05:14:09;;;;;;;37.72;19.73;;;1.40;99.90;;;;;;5089102;28;20477;-66
2023/03/02 05:16:39;;;;;;;36.72;19.65;;;1.40;99.90;;;;;;5088628;28;20037;-66
2023/03/02 05:19:10;;;;;;;37.22;19.38;;;1.40;99.90;;;;;;5088374;28;20461;-66
2023/03/02 05:21:38;;;;;;;36.40;20.13;;;1.40;99.90;;;;;;5087993;28;20549;-67
2023/03/02 05:24:05;;;;;;;36.65;20.63;;;1.40;99.90;;;;;;5089896;28;20491;-67
2023/03/02 05:26:33;;;;;;;41.42;21.27;;;1.30;99.90;;;;;;5087569;28;20522;-67
2023/03/02 05:29:01;;;;;;;36.97;20.48;;;1.30;99.90;;;;;;5091129;28;20406;-67
2023/03/02 05:31:35;;;;;;;37.05;18.90;;;1.30;99.90;;;;;;5098400;28;20036;-67
2023/03/02 05:34:06;;;;;;;37.58;19.38;;;1.30;99.90;;;;;;5087869;28;20063;-66
2023/03/02 05:36:33;;;;;;;32.38;18.60;;;1.30;99.90;;;;;;5097912;28;20070;-66
2023/03/02 05:39:01;;;;;;;36.13;19.55;;;1.30;99.90;;;;;;5099937;28;20044;-67
2023/03/02 05:41:28;;;;;;;33.25;19.08;;;1.20;99.90;;;;;;5097569;28;20054;-67
2023/03/02 05:43:56;;;;;;;38.28;19.52;;;1.20;99.90;;;;;;5088003;28;20040;-66
2023/03/02 05:46:23;;;;;;;36.75;20.23;;;1.20;99.90;;;;;;5088454;28;20474;-66
2023/03/02 05:48:50;;;;;;;34.28;19.25;;;1.20;99.90;;;;;;5087751;28;20075;-66
2023/03/02 05:51:18;;;;;;;40.22;20.75;;;1.20;99.90;;;;;;5086248;28;20474;-66
2023/03/02 05:53:45;;;;;;;39.25;20.80;;;1.20;99.90;;;;;;5088043;28;20101;-66
2023/03/02 05:56:13;;;;;;;37.03;19.63;;;1.30;99.90;;;;;;5092608;28;20487;-65
2023/03/02 05:58:40;;;;;;;37.15;20.42;;;1.30;99.90;;;;;;5105509;28;20044;-67
2023/03/02 06:01:10;;;;;;;37.17;20.00;;;1.30;99.90;;;;;;5094009;28;20139;-65
2023/03/02 06:03:42;;;;;;;38.63;21.05;;;1.30;99.90;;;;;;5098850;28;20138;-68
2023/03/02 06:06:12;;;;;;;38.55;20.02;;;1.40;99.90;;;;;;5089912;28;20123;-66
2023/03/02 06:08:42;;;;;;;39.58;21.45;;;1.30;99.90;;;;;;5087670;28;20036;-67
2023/03/02 06:11:09;;;;;;;35.67;19.42;;;1.40;99.90;;;;;;5088898;28;20048;-67
2023/03/02 06:13:37;;;;;;;32.95;19.52;;;1.40;99.90;;;;;;5089754;28;20417;-67
2023/03/02 06:16:05;;;;;;;38.65;19.08;;;1.40;99.90;;;;;;5089474;28;20417;-67
2023/03/02 06:18:33;;;;;;;37.22;19.48;;;1.50;99.90;;;;;;5088910;28;20119;-68
2023/03/02 06:21:00;;;;;;;43.55;20.92;;;1.50;99.90;;;;;;5088680;28;20397;-68
2023/03/02 06:23:28;;;;;;;35.75;20.52;;;1.50;99.90;;;;;;5088703;28;20052;-67
2023/03/02 06:25:57;;;;;;;37.00;19.88;;;1.60;99.90;;;;;;5093076;28;20032;-67
2023/03/02 06:28:25;;;;;;;42.60;23.58;;;1.60;99.90;;;;;;5093351;28;20065;-67
2023/03/02 06:30:52;;;;;;;35.17;20.50;;;1.70;99.90;;;;;;5109840;28;20047;-67
2023/03/02 06:33:20;;;;;;;37.45;20.35;;;1.70;99.90;;;;;;5100318;28;20489;-67
2023/03/02 06:35:47;;;;;;;36.33;19.23;;;1.80;99.90;;;;;;5098990;28;20051;-67
2023/03/02 06:38:16;;;;;;;35.55;19.98;;;1.90;99.90;;;;;;5095704;28;20054;-67
2023/03/02 06:40:43;;;;;;;38.05;19.35;;;2.00;99.90;;;;;;5092382;28;20411;-67
2023/03/02 06:43:11;;;;;;;40.78;19.73;;;2.10;99.90;;;;;;5093419;28;20133;-67
2023/03/02 06:45:38;;;;;;;37.35;19.38;;;2.10;99.90;;;;;;5092532;28;20279;-67
2023/03/02 06:48:06;;;;;;;36.58;18.77;;;2.20;99.90;;;;;;5094637;28;20044;-67
2023/03/02 06:50:34;;;;;;;37.08;19.35;;;2.30;99.90;;;;;;5099659;28;20039;-67
2023/03/02 06:53:01;;;;;;;33.78;18.13;;;2.40;99.90;;;;;;5104118;28;20218;-66
2023/03/02 06:55:29;;;;;;;40.47;19.38;;;2.40;99.90;;;;;;5094473;28;20063;-66
2023/03/02 06:57:56;;;;;;;34.92;19.80;;;2.50;99.90;;;;;;5092858;28;20042;-67
2023/03/02 07:00:26;;;;;;;33.25;19.20;;;2.60;99.90;;;;;;5091320;28;20055;-67
2023/03/02 07:02:54;;;;;;;33.33;19.63;;;2.60;99.90;;;;;;5092502;28;20063;-67
2023/03/02 07:05:23;;;;;;;37.05;19.83;;;2.70;99.90;;;;;;5096191;28;20062;-67
2023/03/02 07:07:51;;;;;;;36.55;19.60;;;2.80;99.90;;;;;;5102199;28;20085;-67
2023/03/02 07:10:18;;;;;;;37.63;20.48;;;2.90;99.90;;;;;;5094166;28;20105;-67
2023/03/02 07:12:45;;;;;;;40.70;22.20;;;2.90;99.90;;;;;;5092907;28;20517;-67
2023/03/02 07:15:13;;;;;;;32.60;19.08;;;3.00;99.90;;;;;;5097640;28;20123;-66
2023/03/02 07:17:42;;;;;;;33.70;18.50;;;3.10;99.90;;;;;;5094415;28;20471;-67
2023/03/02 07:20:16;;;;;;;37.25;19.95;;;3.20;99.90;;;;;;5090519;28;20488;-67
2023/03/02 07:22:43;;;;;;;34.00;19.60;;;3.20;99.90;;;;;;5074633;28;20048;-67
2023/03/02 07:25:11;;;;;;;35.38;19.38;;;3.30;99.90;;;;;;5092657;28;20040;-67
2023/03/02 07:27:38;;;;;;;34.03;19.10;;;3.50;99.90;;;;;;5100050;28;20126;-67
2023/03/02 07:30:07;;;;;;;33.28;18.98;;;3.50;99.90;;;;;;5089504;28;20055;-67
2023/03/02 07:32:35;;;;;;;38.50;20.00;;;3.60;99.90;;;;;;5094107;28;20137;-68
2023/03/02 07:35:03;;;;;;;39.47;20.55;;;3.70;99.90;;;;;;5096110;28;20052;-67
2023/03/02 07:37:30;;;;;;;36.53;20.38;;;3.70;99.90;;;;;;5091634;28;20546;-67
2023/03/02 07:39:57;;;;;;;39.35;19.65;;;3.80;99.90;;;;;;5090018;28;20047;-66
2023/03/02 07:42:27;;;;;;;34.95;19.83;;;3.80;99.90;;;;;;5101144;28;20035;-67
2023/03/02 07:44:57;;;;;;;34.80;19.30;;;4.00;99.90;;;;;;5105081;28;20067;-67
2023/03/02 07:47:24;;;;;;;36.22;20.08;;;4.00;99.90;;;;;;5091851;28;20434;-67
2023/03/02 07:49:51;;;;;;;40.70;19.73;;;4.10;99.90;;;;;;5091598;28;20042;-67
2023/03/02 07:52:18;;;;;;;37.03;19.85;;;4.20;99.90;;;;;;5090046;28;20420;-66
2023/03/02 07:54:46;;;;;;;37.25;20.42;;;4.20;99.90;;;;;;5091429;28;20574;-66
2023/03/02 07:57:15;;;;;;;36.05;20.10;;;4.30;99.90;;;;;;5105598;28;20572;-67
2023/03/02 07:59:42;;;;;;;37.78;19.35;;;4.40;99.90;;;;;;5099582;28;20070;-67
2023/03/02 08:02:15;;;;;;;34.72;19.05;;;4.40;99.90;;;;;;5098721;28;20493;-67
2023/03/02 08:04:42;;;;;;;35.03;19.48;;;4.50;99.90;;;;;;5089138;28;20044;-67
2023/03/02 08:07:09;;;;;;;32.70;18.73;;;4.60;99.90;;;;;;5089260;28;20123;-68
2023/03/02 08:09:40;;;;;;;32.05;19.33;;;4.60;99.90;;;;;;5088885;28;20036;-67
2023/03/02 08:12:07;;;;;;;34.50;18.17;;;4.70;99.90;;;;;;5089846;28;20071;-65
2023/03/02 08:14:34;;;;;;;32.22;18.17;;;4.80;99.90;;;;;;5095834;28;20324;-65
2023/03/02 08:17:04;;;;;;;35.60;19.67;;;4.80;99.90;;;;;;5096461;28;20050;-65
2023/03/02 08:19:32;;;;;;;36.83;19.05;;;4.90;99.90;;;;;;5090627;28;20046;-65
2023/03/02 08:22:00;;;;;;;33.67;18.08;;;5.00;99.90;;;;;;5088721;28;20395;-65
2023/03/02 08:24:28;;;;;;;34.22;18.27;;;5.10;99.90;;;;;;5088756;28;20587;-66
2023/03/02 08:26:58;;;;;;;34.00;19.13;;;5.20;99.90;;;;;;5095679;28;20048;-65
2023/03/02 08:29:25;;;;;;;36.35;18.48;;;5.30;99.90;;;;;;5097367;28;20040;-65
2023/03/02 08:31:52;;;;;;;32.45;18.33;;;5.30;99.90;;;;;;5100494;28;20046;-65
2023/03/02 08:34:20;;;;;;;38.38;19.00;;;5.40;99.90;;;;;;5090781;28;20040;-67
2023/03/02 08:36:47;;;;;;;34.92;19.40;;;5.50;99.90;;;;;;5097129;28;20044;-66
2023/03/02 08:39:14;;;;;;;37.35;19.98;;;5.60;99.90;;;;;;5096430;28;20456;-64
2023/03/02 08:41:42;;;;;;;30.92;18.73;;;5.70;99.90;;;;;;5098962;28;20470;-65
2023/03/02 08:44:09;;;;;;;32.72;19.38;;;5.80;99.90;;;;;;5091102;28;20054;-65
2023/03/02 08:46:36;;;;;;;37.03;19.75;;;5.90;99.90;;;;;;5094029;28;20459;-64
2023/03/02 08:49:03;;;;;;;37.58;19.08;;;5.90;99.90;;;;;;5108669;28;20043;-64
2023/03/02 08:51:31;;;;;;;35.72;19.75;;;6.10;99.90;;;;;;5091210;28;20131;-64
2023/03/02 08:53:59;;;;;;;34.40;19.13;;;6.10;99.90;;;;;;5091646;28;20090;-64
2023/03/02 08:56:29;;;;;;;34.45;19.58;;;6.20;99.90;;;;;;5088512;28;20105;-65
2023/03/02 08:59:03;;;;;;;33.75;18.73;;;6.20;99.90;;;;;;5087187;28;20040;-65
2023/03/02 09:01:33;;;;;;;39.13;19.80;;;6.30;99.90;;;;;;5088412;28;20113;-65
2023/03/02 09:04:03;;;;;;;35.20;19.08;;;6.40;99.90;;;;;;5093106;28;20065;-67
2023/03/02 09:06:32;;;;;;;36.28;19.55;;;6.50;99.90;;;;;;5084993;28;20043;-67
2023/03/02 09:09:00;;;;;;;38.70;19.70;;;6.70;99.90;;;;;;5084709;28;20070;-67
2023/03/02 09:11:27;;;;;;;32.53;19.08;;;6.70;99.90;;;;;;5086923;28;20044;-67
2023/03/02 09:13:55;;;;;;;31.88;18.48;;;6.80;99.90;;;;;;5086748;28;20039;-67
2023/03/02 09:16:25;;;;;;;29.75;16.83;;;6.90;99.90;;;;;;5086505;28;20063;-67
2023/03/02 09:18:53;;;;;;;34.17;17.75;;;7.10;99.90;;;;;;5085331;28;20120;-67
2023/03/02 09:21:21;;;;;;;30.55;18.30;;;7.10;99.90;;;;;;5100193;28;20648;-67
2023/03/02 09:23:52;;;;;;;32.35;19.00;;;7.20;99.90;;;;;;5104917;28;20039;-67
2023/03/02 09:26:20;;;;;;;32.97;17.98;;;7.30;99.90;;;;;;5088107;28;20067;-67
2023/03/02 09:28:47;;;;;;;36.63;19.10;;;7.40;99.90;;;;;;5085659;28;20040;-67
2023/03/02 09:31:14;;;;;;;32.92;19.05;;;7.50;99.90;;;;;;5087131;28;20067;-68
2023/03/02 09:33:42;;;;;;;32.38;18.70;;;7.60;99.90;;;;;;5088644;28;20097;-68
2023/03/02 09:36:20;;;;;;;33.33;19.42;;;7.70;99.90;;;;;;5088992;28;20044;-67
2023/03/02 09:38:47;;;;;;;36.53;18.67;;;7.80;99.90;;;;;;5093417;28;20081;-67
2023/03/02 09:41:20;;;;;;;31.77;17.83;;;7.80;99.90;;;;;;5088589;28;20043;-67
2023/03/02 09:44:12;;;;;;;30.88;18.75;;;8.00;99.90;;;;;;5088082;28;20043;-67
2023/03/02 09:46:43;;;;;;;30.55;18.23;;;8.20;99.90;;;;;;5076128;28;20127;-68
2023/03/02 09:49:19;;;;;;;35.72;18.98;;;8.30;99.90;;;;;;5086620;28;20102;-68
2023/03/02 09:52:20;;;;;;;31.02;17.52;;;8.40;99.90;;;;;;5094582;28;20039;-67
2023/03/02 09:54:48;;;;;;;31.08;18.63;;;8.50;99.90;;;;;;5109584;28;20053;-67
2023/03/02 09:57:22;;;;;;;33.90;19.08;;;8.60;99.90;;;;;;5096654;28;20085;-66
2023/03/02 09:59:55;;;;;;;35.42;19.15;;;8.60;99.90;;;;;;5089041;28;20048;-66
2023/03/02 10:02:51;;;;;;;31.48;19.08;;;8.70;99.90;;;;;;5088095;28;20075;-67
2023/03/02 10:05:37;;;;;;;32.95;18.98;;;8.80;99.90;;;;;;5088171;28;20082;-67
2023/03/02 10:08:05;;;;;;;30.17;17.77;;;9.00;99.90;;;;;;5087302;28;20498;-67
2023/03/02 10:10:42;;;;;;;38.22;18.55;;;9.10;99.90;;;;;;5087799;28;20051;-67
2023/03/02 10:13:18;;;;;;;43.55;24.73;;;9.30;99.90;;;;;;5088069;28;20050;-67
2023/03/02 10:15:51;;;;;;;28.85;17.77;;;9.40;99.90;;;;;;5093365;28;20040;-67
2023/03/02 10:18:26;;;;;;;30.10;18.05;;;9.60;99.90;;;;;;5101547;28;20406;-67
2023/03/02 10:21:05;;;;;;;27.90;16.25;;;9.60;99.90;;;;;;5105471;28;20502;-67
2023/03/02 10:23:38;;;;;;;26.38;18.08;;;9.80;99.90;;;;;;5088744;28;20036;-68
2023/03/02 10:26:25;;;;;;;29.65;18.05;;;10.00;99.90;;;;;;5093091;28;20040;-68
2023/03/02 10:28:59;;;;;;;32.72;18.83;;;10.10;99.90;;;;;;5088167;28;20127;-67
2023/03/02 10:31:32;;;;;;;30.05;16.98;;;10.30;99.90;;;;;;5086273;28;20044;-67
2023/03/02 10:34:00;;;;;;;27.83;17.45;;;10.50;99.90;;;;;;5093987;28;20041;-67
2023/03/02 10:36:30;;;;;;;27.88;16.50;;;10.60;99.90;;;;;;5087596;28;20547;-67
2023/03/02 10:38:59;;;;;;;29.48;17.13;;;10.80;99.90;;;;;;5093493;28;20115;-67
2023/03/02 10:41:40;;;;;;;28.77;17.17;;;11.00;99.90;;;;;;5090249;28;20569;-67
2023/03/02 10:44:19;;;;;;;29.10;17.27;;;11.20;99.90;;;;;;5092741;28;20145;-67
2023/03/02 10:46:47;;;;;;;28.38;16.60;;;11.40;99.90;;;;;;5092232;28;20479;-67
2023/03/02 10:49:35;;;;;;;28.60;16.88;;;11.60;99.90;;;;;;5094034;28;20050;-67
2023/03/02 10:52:17;;;;;;;26.08;16.48;;;11.70;99.90;;;;;;5105972;28;20070;-66
2023/03/02 10:54:46;;;;;;;;;;;11.90;99.90;;;;;;5099067;28;20463;-66
2023/03/02 10:57:38;;;;;;;28.83;15.65;;;12.10;99.90;;;;;;5086368;28;20000;-68
2023/03/02 11:00:17;;;;;;;26.63;16.02;;;12.30;99.90;;;;;;5095945;28;20152;-66
2023/03/02 11:03:02;;;;;;;27.88;15.93;;;12.50;99.90;;;;;;5086651;28;20047;-66
2023/03/02 11:05:32;;;;;;;22.65;15.75;;;12.60;99.90;;;;;;5101140;28;20464;-67
2023/03/02 11:08:05;;;;;;;27.80;16.02;;;12.70;99.90;;;;;;5103601;28;20043;-66
2023/03/02 11:10:38;;;;;;;26.38;16.00;;;12.90;99.90;;;;;;5087365;28;20041;-67
2023/03/02 11:13:35;;;;;;;27.10;15.40;;;13.20;99.90;;;;;;5089944;28;20478;-67
2023/03/02 11:16:16;;;;;;;26.88;14.93;;;13.40;99.90;;;;;;5098651;28;20075;-66
2023/03/02 11:18:51;;;;;;;28.08;15.23;;;13.80;99.90;;;;;;5096064;28;20131;-66
2023/03/02 11:21:35;;;;;;;24.20;14.88;;;14.10;99.90;;;;;;5094590;28;20453;-67
2023/03/02 11:24:25;;;;;;;20.52;13.15;;;14.30;99.90;;;;;;5099353;28;20044;-66
2023/03/02 11:26:55;;;;;;;25.55;14.10;;;14.60;99.90;;;;;;5092418;28;20032;-66
2023/03/02 11:29:42;;;;;;;22.98;13.55;;;14.70;99.90;;;;;;5101108;28;20705;-66
2023/03/02 11:32:34;;;;;;;20.80;12.80;;;15.00;99.90;;;;;;5107842;28;20073;-66
2023/03/02 11:35:20;;;;;;;20.25;14.00;;;15.40;99.90;;;;;;5099143;28;20743;-67
2023/03/02 11:37:51;;;;;;;21.23;13.13;;;15.60;99.90;;;;;;5090466;28;20134;-67
2023/03/02 11:40:34;;;;;;;20.85;12.85;;;15.70;99.90;;;;;;5104323;28;20770;-68
2023/03/02 11:43:03;;;;;;;21.35;13.75;;;15.80;99.90;;;;;;5094939;28;20107;-68
2023/03/02 11:45:36;;;;;;;22.23;14.00;;;16.10;99.90;;;;;;5109819;28;20070;-68
2023/03/02 11:48:06;;;;;;;20.48;13.07;;;16.00;99.90;;;;;;5089463;28;20899;-67
2023/03/02 11:50:47;;;;;;;20.77;13.20;;;16.30;99.90;;;;;;5089699;28;20502;-67
2023/03/02 11:53:18;;;;;;;20.20;14.00;;;16.20;99.90;;;;;;5099337;28;20040;-67
2023/03/02 11:55:49;;;;;;;24.20;14.50;;;16.60;99.60;;;;;;5098030;28;20068;-67
2023/03/02 11:58:20;;;;;;;21.75;13.52;;;16.90;99.10;;;;;;5099382;28;20413;-67
2023/03/02 12:00:48;;;;;;;22.13;13.02;;;17.30;98.30;;;;;;5097630;28;20040;-67
2023/03/02 12:03:16;;;;;;;24.00;13.35;;;17.60;97.50;;;;;;5099729;28;20805;-69
2023/03/02 12:05:50;;;;;;;22.85;13.20;;;17.80;96.30;;;;;;5097241;28;20044;-67
2023/03/02 12:08:17;;;;;;;20.70;12.90;;;17.60;95.90;;;;;;5100133;28;20040;-70
2023/03/02 12:11:15;;;;;;;20.65;12.27;;;17.20;96.00;;;;;;5095933;28;20042;-66
2023/03/02 12:13:48;;;;;;;20.50;12.65;;;17.50;95.80;;;;;;5101214;28;20146;-68
2023/03/02 12:16:23;;;;;;;21.13;12.23;;;17.90;95.00;;;;;;5097468;28;20044;-68
2023/03/02 12:18:51;;;;;;;18.45;12.88;;;17.90;94.70;;;;;;5084519;28;20044;-67
2023/03/02 12:21:23;;;;;;;18.23;12.15;;;17.90;94.30;;;;;;5098862;28;20062;-68
2023/03/02 12:23:50;;;;;;;23.35;12.82;;;18.20;93.70;;;;;;5095659;28;20604;-67
2023/03/02 12:26:23;;;;;;;22.40;12.55;;;18.10;93.70;;;;;;5091655;28;20063;-66
2023/03/02 12:29:04;;;;;;;19.92;12.40;;;18.20;93.20;;;;;;5106978;28;20040;-68
2023/03/02 12:31:45;;;;;;;23.83;12.53;;;18.50;92.90;;;;;;5089968;28;20090;-68
2023/03/02 12:34:34;;;;;;;20.63;13.73;;;19.00;92.40;;;;;;5090100;28;20044;-67
2023/03/02 12:37:13;;;;;;;19.33;12.95;;;19.20;92.00;;;;;;5090645;28;20507;-68
2023/03/02 12:40:20;;;;;;;19.95;12.07;;;19.70;91.10;;;;;;5089330;28;20462;-68
2023/03/02 12:43:08;;;;;;;17.23;12.30;;;20.10;90.00;;;;;;5091016;28;20052;-68
2023/03/02 12:45:54;;;;;;;21.42;13.02;;;20.60;88.80;;;;;;5087644;28;20507;-69
2023/03/02 12:48:39;;;;;;;17.00;12.07;;;21.40;86.90;;;;;;5092828;28;20047;-68
2023/03/02 12:51:20;;;;;;;18.42;12.05;;;22.10;83.60;;;;;;5092729;28;21121;-69
2023/03/02 12:53:49;;;;;;;16.63;12.13;;;22.70;80.40;;;;;;5090762;28;20088;-69
2023/03/02 12:56:24;;;;;;;22.15;12.75;;;23.00;76.60;;;;;;5094965;28;20074;-67
2023/03/02 12:58:53;;;;;;;22.70;11.90;;;22.80;76.30;;;;;;5099488;27;20486;-68